createdAt,value
2023-05-06T00:02:19.199Z,18.45
2023-05-06T00:04:46.106Z,18.20
2023-05-06T00:07:14.291Z,17.93
2023-05-06T00:09:40.840Z,18.06
2023-05-06T00:12:07.732Z,18.01
2023-05-06T00:14:34.323Z,18.17
2023-05-06T00:17:00.783Z,18.17
2023-05-06T00:19:27.505Z,18.27
2023-05-06T00:21:55.767Z,18.33
2023-05-06T00:24:22.875Z,18.29
2023-05-06T00:26:49.455Z,17.85
2023-05-06T00:29:16.300Z,17.77
2023-05-06T00:31:42.946Z,17.68
2023-05-06T00:34:09.558Z,17.72
2023-05-06T00:36:36.846Z,17.54
2023-05-06T00:39:03.890Z,17.75
2023-05-06T00:41:32.550Z,17.61
2023-05-06T00:44:03.060Z,17.60
2023-05-06T00:46:29.898Z,17.50
2023-05-06T00:48:56.514Z,17.40
2023-05-06T00:51:23.507Z,17.54
2023-05-06T00:53:50.690Z,17.51
2023-05-06T00:56:20.860Z,17.33
2023-05-06T00:58:48.239Z,17.44
2023-05-06T01:01:15.138Z,16.98
2023-05-06T01:03:41.881Z,16.89
2023-05-06T01:06:32.592Z,16.74
2023-05-06T01:09:19.761Z,16.88
2023-05-06T01:11:53.463Z,16.78
2023-05-06T01:14:36.716Z,16.95
2023-05-06T01:17:06.278Z,16.63
2023-05-06T01:19:48.967Z,16.62
2023-05-06T01:22:16.700Z,16.45
2023-05-06T01:24:45.312Z,16.28
2023-05-06T01:27:13.560Z,16.47
2023-05-06T01:29:42.971Z,16.44
2023-05-06T01:32:35.275Z,16.49
2023-05-06T01:35:31.672Z,16.32
2023-05-06T01:38:20.338Z,16.35
2023-05-06T01:40:54.155Z,16.31
2023-05-06T01:43:22.284Z,16.44
2023-05-06T01:45:53.462Z,16.29
2023-05-06T01:48:26.131Z,16.16
2023-05-06T01:50:53.048Z,16.12
2023-05-06T01:53:20.368Z,15.96
2023-05-06T01:55:48.509Z,15.97
2023-05-06T01:58:15.844Z,16.16
2023-05-06T02:00:42.640Z,15.99
2023-05-06T02:03:09.204Z,15.87
2023-05-06T02:05:35.830Z,15.89
2023-05-06T02:08:02.850Z,15.84
2023-05-06T02:10:31.248Z,15.76
2023-05-06T02:12:58.113Z,15.76
2023-05-06T02:15:24.639Z,15.64
2023-05-06T02:17:51.566Z,15.54
2023-05-06T02:20:18.272Z,15.47
2023-05-06T02:22:44.801Z,15.44
2023-05-06T02:25:11.867Z,15.54
2023-05-06T02:27:38.432Z,15.53
2023-05-06T02:30:06.843Z,15.29
2023-05-06T02:32:33.507Z,15.08
2023-05-06T02:35:00.192Z,15.11
2023-05-06T02:37:26.792Z,15.36
2023-05-06T02:39:53.252Z,15.33
2023-05-06T02:44:48.290Z,15.27
2023-05-06T02:47:14.966Z,15.24
2023-05-06T02:49:41.516Z,15.08
2023-05-06T02:52:08.220Z,15.12
2023-05-06T02:54:34.825Z,15.32
2023-05-06T02:57:01.724Z,15.25
2023-05-06T02:59:28.474Z,15.17
2023-05-06T03:01:55.257Z,15.07
2023-05-06T03:04:22.417Z,15.02
2023-05-06T03:06:49.064Z,15.00
2023-05-06T03:09:15.690Z,15.40
2023-05-06T03:11:42.315Z,15.40
2023-05-06T03:14:08.820Z,15.11
2023-05-06T03:16:37.087Z,14.89
2023-05-06T03:19:03.955Z,14.84
2023-05-06T03:21:32.186Z,14.99
2023-05-06T03:23:59.013Z,14.91
2023-05-06T03:26:27.175Z,15.00
2023-05-06T03:28:54.359Z,15.08
2023-05-06T03:31:21.305Z,14.97
2023-05-06T03:33:47.924Z,14.76
2023-05-06T03:36:14.815Z,14.67
2023-05-06T03:38:41.682Z,14.96
2023-05-06T03:41:08.454Z,14.83
2023-05-06T03:43:36.196Z,14.86
2023-05-06T03:46:03.923Z,14.56
2023-05-06T03:48:32.313Z,14.88
2023-05-06T03:50:59.204Z,14.89
2023-05-06T03:53:25.858Z,14.80
2023-05-06T03:55:54.949Z,14.94
2023-05-06T03:58:21.555Z,14.82
2023-05-06T04:00:48.109Z,14.99
2023-05-06T04:03:14.974Z,15.19
2023-05-06T04:05:41.675Z,14.88
2023-05-06T04:08:08.992Z,15.19
2023-05-06T04:10:40.926Z,15.13
2023-05-06T04:13:07.705Z,14.85
2023-05-06T04:15:35.276Z,14.94
2023-05-06T04:18:02.118Z,14.68
2023-05-06T04:20:30.049Z,14.73
2023-05-06T04:22:56.640Z,14.85
2023-05-06T04:25:23.391Z,14.65
2023-05-06T04:27:50.044Z,14.30
2023-05-06T04:30:17.668Z,14.79
2023-05-06T04:32:44.648Z,14.76
2023-05-06T04:35:11.525Z,14.71
2023-05-06T04:37:38.252Z,14.90
2023-05-06T04:40:06.065Z,14.92
2023-05-06T04:42:33.539Z,14.87
2023-05-06T04:45:00.254Z,14.82
2023-05-06T04:47:26.885Z,14.89
2023-05-06T04:49:54.444Z,14.76
2023-05-06T04:52:21.041Z,15.09
2023-05-06T04:54:47.592Z,15.31
2023-05-06T04:57:14.196Z,15.41
2023-05-06T04:59:42.776Z,15.72
2023-05-06T05:02:09.375Z,15.79
2023-05-06T05:04:36.470Z,16.91
2023-05-06T05:07:03.031Z,17.09
2023-05-06T05:09:29.512Z,17.21
2023-05-06T05:11:56.092Z,17.57
2023-05-06T05:14:22.673Z,18.31
2023-05-06T05:16:49.444Z,17.36
2023-05-06T05:19:16.116Z,17.92
2023-05-06T05:21:43.425Z,17.40
2023-05-06T05:24:11.164Z,17.87
2023-05-06T05:26:39.290Z,18.03
2023-05-06T05:29:06.880Z,18.64
2023-05-06T05:31:33.829Z,18.40
2023-05-06T05:34:00.425Z,18.92
2023-05-06T05:36:27.660Z,18.13
2023-05-06T05:38:54.259Z,18.22
2023-05-06T05:41:20.852Z,18.03
2023-05-06T05:43:47.495Z,18.25
2023-05-06T05:46:14.517Z,18.33
2023-05-06T05:48:41.430Z,18.68
2023-05-06T05:51:08.241Z,19.00
2023-05-06T05:53:34.861Z,19.83
2023-05-06T05:56:01.418Z,20.37
2023-05-06T05:58:28.227Z,19.84
2023-05-06T06:00:54.819Z,19.68
2023-05-06T06:03:21.406Z,19.58
2023-05-06T06:05:49.366Z,19.57
2023-05-06T06:08:18.391Z,19.85
2023-05-06T06:10:44.954Z,20.69
2023-05-06T06:13:11.585Z,20.38
2023-05-06T06:15:38.417Z,19.63
2023-05-06T06:18:08.153Z,20.47
2023-05-06T06:20:35.525Z,19.95
2023-05-06T06:23:03.107Z,19.21
2023-05-06T06:25:29.599Z,19.68
2023-05-06T06:27:56.898Z,20.23
2023-05-06T06:30:23.552Z,20.58
2023-05-06T06:32:53.084Z,22.00
2023-05-06T06:35:23.543Z,21.37
2023-05-06T06:37:50.272Z,20.85
2023-05-06T06:40:18.261Z,21.31
2023-05-06T06:42:48.987Z,21.04
2023-05-06T06:45:15.714Z,20.65
2023-05-06T06:47:42.456Z,22.92
2023-05-06T06:50:10.167Z,22.28
2023-05-06T06:52:38.254Z,22.35
2023-05-06T06:55:05.128Z,21.72
2023-05-06T06:57:31.835Z,21.33
2023-05-06T06:59:58.365Z,23.24
2023-05-06T07:02:24.903Z,21.89
2023-05-06T07:04:51.609Z,21.83
2023-05-06T07:07:18.573Z,22.34
2023-05-06T07:09:45.489Z,22.20
2023-05-06T07:12:12.372Z,22.93
2023-05-06T07:14:41.537Z,24.74
2023-05-06T07:17:08.185Z,25.40
2023-05-06T07:19:34.793Z,26.32
2023-05-06T07:22:02.868Z,24.81
2023-05-06T07:24:29.568Z,26.10
2023-05-06T07:26:56.627Z,25.75
2023-05-06T07:29:24.302Z,28.43
2023-05-06T07:31:51.172Z,26.71
2023-05-06T07:34:17.816Z,27.52
2023-05-06T07:36:45.281Z,28.67
2023-05-06T07:39:14.386Z,30.64
2023-05-06T07:41:40.959Z,29.43
2023-05-06T07:44:08.167Z,26.58
2023-05-06T07:46:34.970Z,26.53
2023-05-06T07:49:01.816Z,24.50
2023-05-06T07:51:28.431Z,24.69
2023-05-06T07:53:55.117Z,24.81
2023-05-06T07:56:21.707Z,26.90
2023-05-06T07:58:49.563Z,25.62
2023-05-06T08:01:16.350Z,27.25
2023-05-06T08:03:44.230Z,28.06
2023-05-06T08:06:11.461Z,26.33
2023-05-06T08:08:37.983Z,25.78
2023-05-06T08:11:05.651Z,25.59
2023-05-06T08:13:33.497Z,24.54
2023-05-06T08:16:02.225Z,24.89
2023-05-06T08:18:30.246Z,26.15
2023-05-06T08:20:57.097Z,24.15
2023-05-06T08:23:23.938Z,26.23
2023-05-06T08:25:50.950Z,25.09
2023-05-06T08:28:17.807Z,25.77
2023-05-06T08:30:47.709Z,25.89
2023-05-06T08:33:14.764Z,26.66
2023-05-06T08:35:41.812Z,25.00
2023-05-06T08:38:09.337Z,23.93
2023-05-06T08:40:43.062Z,24.32
2023-05-06T08:43:14.562Z,25.04
2023-05-06T08:45:42.255Z,28.81
2023-05-06T08:48:10.838Z,31.60
2023-05-06T08:50:43.693Z,31.95
2023-05-06T08:53:13.996Z,26.87
2023-05-06T08:55:42.198Z,29.63
2023-05-06T08:58:13.340Z,30.29
2023-05-06T09:00:39.964Z,29.39
2023-05-06T09:03:06.999Z,29.07
2023-05-06T09:05:33.747Z,26.75
2023-05-06T09:08:00.424Z,25.12
2023-05-06T09:10:34.835Z,26.48
2023-05-06T09:13:01.537Z,28.87
2023-05-06T09:15:43.696Z,24.46
2023-05-06T09:18:11.774Z,25.29
2023-05-06T09:20:47.390Z,25.75
2023-05-06T09:23:18.308Z,24.86
2023-05-06T09:25:47.174Z,25.29
2023-05-06T09:28:14.544Z,26.30
2023-05-06T09:30:42.718Z,26.10
2023-05-06T09:33:10.275Z,26.00
2023-05-06T09:35:39.192Z,24.68
2023-05-06T09:38:07.651Z,25.28
2023-05-06T09:40:38.905Z,25.08
2023-05-06T09:43:06.073Z,24.75
2023-05-06T09:45:33.910Z,25.55
2023-05-06T09:48:01.133Z,26.61
2023-05-06T09:50:29.735Z,25.51
2023-05-06T09:52:57.888Z,24.61
2023-05-06T09:55:27.443Z,24.83
2023-05-06T09:57:55.063Z,25.83
2023-05-06T10:00:27.023Z,26.18
2023-05-06T10:02:55.094Z,27.44
2023-05-06T10:05:25.977Z,27.14
2023-05-06T10:07:55.044Z,27.69
2023-05-06T10:10:24.820Z,31.65
2023-05-06T10:12:53.575Z,31.04
2023-05-06T10:15:20.467Z,28.99
2023-05-06T10:17:49.467Z,30.71
2023-05-06T10:20:17.344Z,31.84
2023-05-06T10:23:00.571Z,32.36
2023-05-06T10:25:36.346Z,30.03
2023-05-06T10:28:08.029Z,29.30
2023-05-06T10:30:39.368Z,28.43
2023-05-06T10:33:09.094Z,30.35
2023-05-06T10:35:47.028Z,30.17
2023-05-06T10:38:37.771Z,27.93
2023-05-06T10:41:05.016Z,35.45
2023-05-06T10:43:38.824Z,34.73
2023-05-06T10:46:09.658Z,35.18
2023-05-06T10:48:38.092Z,33.76
2023-05-06T10:51:14.055Z,33.70
2023-05-06T10:54:02.428Z,32.99
2023-05-06T10:56:31.535Z,34.39
2023-05-06T10:59:11.217Z,35.30
2023-05-06T11:01:45.530Z,30.10
2023-05-06T11:04:16.090Z,29.33
2023-05-06T11:06:46.413Z,29.45
2023-05-06T11:09:23.692Z,29.39
2023-05-06T11:12:02.622Z,26.34
2023-05-06T11:14:36.872Z,26.97
2023-05-06T11:17:28.774Z,27.54
2023-05-06T11:20:24.443Z,28.03
2023-05-06T11:22:53.585Z,27.75
2023-05-06T11:25:42.818Z,27.37
2023-05-06T11:28:14.647Z,26.97
2023-05-06T11:30:43.410Z,26.04
2023-05-06T11:33:18.757Z,25.89
2023-05-06T11:35:46.271Z,26.18
2023-05-06T11:38:13.147Z,27.08
2023-05-06T11:40:42.170Z,25.95
2023-05-06T11:43:12.801Z,25.87
2023-05-06T11:45:58.381Z,26.68
2023-05-06T11:48:47.989Z,25.04
2023-05-06T11:51:14.922Z,25.08
2023-05-06T11:53:42.441Z,25.37
2023-05-06T11:56:09.500Z,26.42
2023-05-06T11:58:36.167Z,26.46
2023-05-06T12:01:04.422Z,25.45
2023-05-06T12:03:33.141Z,25.39
2023-05-06T12:06:00.136Z,25.20
2023-05-06T12:08:32.666Z,25.35
2023-05-06T12:11:01.883Z,26.05
2023-05-06T12:13:30.880Z,25.13
2023-05-06T12:15:59.757Z,24.89
2023-05-06T12:18:27.664Z,24.95
2023-05-06T12:20:55.356Z,24.66
2023-05-06T12:23:22.143Z,25.65
2023-05-06T12:26:03.948Z,26.88
2023-05-06T12:28:31.423Z,26.05
2023-05-06T12:30:58.197Z,25.66
2023-05-06T12:33:25.031Z,25.54
2023-05-06T12:35:52.886Z,25.53
2023-05-06T12:38:19.592Z,25.52
2023-05-06T12:40:54.144Z,24.89
2023-05-06T12:43:30.783Z,24.69
2023-05-06T12:46:05.380Z,26.31
2023-05-06T12:48:32.058Z,27.35
2023-05-06T12:50:58.749Z,26.30
2023-05-06T12:53:34.060Z,26.94
2023-05-06T12:56:00.980Z,27.42
2023-05-06T12:58:27.572Z,27.44
2023-05-06T13:00:54.517Z,27.28
2023-05-06T13:03:21.891Z,26.81
2023-05-06T13:05:50.305Z,25.64
2023-05-06T13:08:18.606Z,26.54
2023-05-06T13:10:45.661Z,27.19
2023-05-06T13:13:13.455Z,27.28
2023-05-06T13:15:41.691Z,27.72
2023-05-06T13:18:08.890Z,28.14
2023-05-06T13:20:36.141Z,29.17
2023-05-06T13:23:03.819Z,28.09
2023-05-06T13:25:30.633Z,25.62
2023-05-06T13:27:57.270Z,28.91
2023-05-06T13:30:24.339Z,29.83
2023-05-06T13:32:50.971Z,27.34
2023-05-06T13:35:17.577Z,26.14
2023-05-06T13:37:45.185Z,25.16
2023-05-06T13:40:12.784Z,27.34
2023-05-06T13:42:39.562Z,25.87
2023-05-06T13:45:06.820Z,27.37
2023-05-06T13:47:34.062Z,27.73
2023-05-06T13:50:03.626Z,27.78
2023-05-06T13:52:30.350Z,28.09
2023-05-06T13:54:57.684Z,25.94
2023-05-06T13:57:25.958Z,25.84
2023-05-06T13:59:52.529Z,26.27
2023-05-06T14:02:20.118Z,25.20
2023-05-06T14:04:47.501Z,26.16
2023-05-06T14:07:14.182Z,26.15
2023-05-06T14:09:41.224Z,25.87
2023-05-06T14:12:08.743Z,25.90
2023-05-06T14:14:35.332Z,25.64
2023-05-06T14:17:01.997Z,26.36
2023-05-06T14:19:33.190Z,26.73
2023-05-06T14:22:00.120Z,26.87
2023-05-06T14:24:26.737Z,25.96
2023-05-06T14:26:53.996Z,25.33
2023-05-06T14:29:21.052Z,24.66
2023-05-06T14:31:47.759Z,23.93
2023-05-06T14:34:14.583Z,24.85
2023-05-06T14:36:41.402Z,24.98
2023-05-06T14:39:08.225Z,25.51
2023-05-06T14:41:35.171Z,24.33
2023-05-06T14:44:02.001Z,25.63
2023-05-06T14:46:29.694Z,25.74
2023-05-06T14:48:58.175Z,25.69
2023-05-06T14:51:25.626Z,25.46
2023-05-06T14:53:53.379Z,26.20
2023-05-06T14:56:21.054Z,26.12
2023-05-06T14:58:48.061Z,25.94
2023-05-06T15:01:15.174Z,25.84
2023-05-06T15:03:42.339Z,25.21
2023-05-06T15:06:09.026Z,25.42
2023-05-06T15:08:35.879Z,24.69
2023-05-06T15:11:04.559Z,25.05
2023-05-06T15:13:33.436Z,24.80
2023-05-06T15:16:00.200Z,25.50
2023-05-06T15:18:28.041Z,25.33
2023-05-06T15:20:55.337Z,25.24
2023-05-06T15:23:22.617Z,25.81
2023-05-06T15:25:49.679Z,25.13
2023-05-06T15:28:16.575Z,25.17
2023-05-06T15:30:43.381Z,24.58
2023-05-06T15:33:09.992Z,24.60
2023-05-06T15:35:36.579Z,24.99
2023-05-06T15:38:04.083Z,24.40
2023-05-06T15:40:31.629Z,24.25
2023-05-06T15:42:58.547Z,24.58
2023-05-06T15:45:25.657Z,24.80
2023-05-06T15:47:52.510Z,25.30
2023-05-06T15:50:32.045Z,25.47
2023-05-06T15:53:01.362Z,24.99
2023-05-06T15:55:28.193Z,24.96
2023-05-06T15:57:54.958Z,24.79
2023-05-06T16:00:22.198Z,24.09
2023-05-06T16:02:49.117Z,24.21
2023-05-06T16:05:16.516Z,24.57
2023-05-06T16:07:43.480Z,25.36
2023-05-06T16:10:10.324Z,24.57
2023-05-06T16:12:37.217Z,24.15
2023-05-06T16:15:04.350Z,23.53
2023-05-06T16:17:33.032Z,23.86
2023-05-06T16:19:59.627Z,24.48
2023-05-06T16:22:26.299Z,23.43
2023-05-06T16:24:53.019Z,23.32
2023-05-06T16:27:21.176Z,23.55
2023-05-06T16:29:48.045Z,23.70
2023-05-06T16:32:14.720Z,22.84
2023-05-06T16:34:42.591Z,23.38
2023-05-06T16:37:09.653Z,23.47
2023-05-06T16:39:36.666Z,23.00
2023-05-06T16:42:04.561Z,23.11
2023-05-06T16:44:31.462Z,23.28
2023-05-06T16:46:58.061Z,22.94
2023-05-06T16:49:27.773Z,23.34
2023-05-06T16:51:54.833Z,23.45
2023-05-06T16:54:21.448Z,23.86
2023-05-06T16:56:52.185Z,23.84
2023-05-06T16:59:21.623Z,24.12
2023-05-06T17:01:49.103Z,23.79
2023-05-06T17:04:16.121Z,23.65
2023-05-06T17:06:42.756Z,23.81
2023-05-06T17:09:09.359Z,23.63
2023-05-06T17:11:36.002Z,23.34
2023-05-06T17:14:03.442Z,23.16
2023-05-06T17:16:30.467Z,23.02
2023-05-06T17:18:57.165Z,23.06
2023-05-06T17:21:24.252Z,23.01
2023-05-06T17:23:51.495Z,23.23
2023-05-06T17:26:18.467Z,23.05
2023-05-06T17:28:45.240Z,23.05
2023-05-06T17:31:12.295Z,23.22
2023-05-06T17:33:38.902Z,23.63
2023-05-06T17:36:06.278Z,23.59
2023-05-06T17:38:32.818Z,23.69
2023-05-06T17:40:59.339Z,23.83
2023-05-06T17:43:26.168Z,23.20
2023-05-06T17:45:53.132Z,23.40
2023-05-06T17:48:19.813Z,23.72
2023-05-06T17:50:46.660Z,23.58
2023-05-06T17:53:13.194Z,23.57
2023-05-06T17:55:40.171Z,23.65
2023-05-06T17:58:06.892Z,23.57
2023-05-06T18:00:33.560Z,23.60
2023-05-06T18:03:00.327Z,23.59
2023-05-06T18:05:27.766Z,23.83
2023-05-06T18:07:54.452Z,23.62
2023-05-06T18:10:21.448Z,23.66
2023-05-06T18:12:48.279Z,23.87
2023-05-06T18:15:14.915Z,23.52
2023-05-06T18:17:41.478Z,23.58
2023-05-06T18:20:08.885Z,23.59
2023-05-06T18:22:35.618Z,23.48
2023-05-06T18:25:04.287Z,23.71
2023-05-06T18:27:32.380Z,23.58
2023-05-06T18:29:59.374Z,23.27
2023-05-06T18:32:26.137Z,22.89
2023-05-06T18:34:52.683Z,23.02
2023-05-06T18:37:19.676Z,23.21
2023-05-06T18:39:46.313Z,23.07
2023-05-06T18:42:12.979Z,22.94
2023-05-06T18:44:39.522Z,22.54
2023-05-06T18:47:06.148Z,22.76
2023-05-06T18:49:32.901Z,22.51
2023-05-06T18:51:59.708Z,23.04
2023-05-06T18:54:26.731Z,22.69
2023-05-06T18:56:54.766Z,23.08
2023-05-06T18:59:22.754Z,22.85
2023-05-06T19:01:49.845Z,23.28
2023-05-06T19:04:16.556Z,23.18
2023-05-06T19:06:43.147Z,23.15
2023-05-06T19:09:11.156Z,22.88
2023-05-06T19:11:38.072Z,23.11
2023-05-06T19:14:05.061Z,23.05
2023-05-06T19:16:31.863Z,22.86
2023-05-06T19:18:58.787Z,22.81
2023-05-06T19:21:25.414Z,22.91
2023-05-06T19:23:53.278Z,22.65
2023-05-06T19:26:20.010Z,22.48
2023-05-06T19:28:46.685Z,22.14
2023-05-06T19:31:13.322Z,22.30
2023-05-06T19:33:40.863Z,22.70
2023-05-06T19:36:07.502Z,22.93
2023-05-06T19:38:34.778Z,22.75
2023-05-06T19:41:01.645Z,22.54
2023-05-06T19:43:28.471Z,22.86
2023-05-06T19:45:55.991Z,22.85
2023-05-06T19:48:24.038Z,22.46
2023-05-06T19:50:51.873Z,21.62
2023-05-06T19:53:18.575Z,21.49
2023-05-06T19:55:45.393Z,21.30
2023-05-06T19:58:14.005Z,21.14
2023-05-06T20:00:41.863Z,21.19
2023-05-06T20:03:09.584Z,20.73
2023-05-06T20:05:36.436Z,20.76
2023-05-06T20:08:04.865Z,20.70
2023-05-06T20:10:32.065Z,21.08
2023-05-06T20:12:58.895Z,21.25
2023-05-06T20:15:26.706Z,20.71
2023-05-06T20:17:53.983Z,20.89
2023-05-06T20:20:20.852Z,21.28
2023-05-06T20:22:47.700Z,21.13
2023-05-06T20:25:18.822Z,21.06
2023-05-06T20:27:45.857Z,21.10
2023-05-06T20:30:13.686Z,21.14
2023-05-06T20:32:40.807Z,20.84
2023-05-06T20:35:08.202Z,20.69
2023-05-06T20:37:36.477Z,20.51
2023-05-06T20:40:05.770Z,20.59
2023-05-06T20:42:32.413Z,20.72
2023-05-06T20:44:59.911Z,20.73
2023-05-06T20:47:27.380Z,20.42
2023-05-06T20:49:54.648Z,20.76
2023-05-06T20:52:22.076Z,20.49
2023-05-06T20:54:49.169Z,20.55
2023-05-06T20:57:16.946Z,20.56
2023-05-06T20:59:44.446Z,20.31
2023-05-06T21:02:11.437Z,20.58
2023-05-06T21:04:38.510Z,20.22
2023-05-06T21:07:05.935Z,20.56
2023-05-06T21:09:32.595Z,20.68
2023-05-06T21:11:59.736Z,20.34
2023-05-06T21:14:27.319Z,20.76
2023-05-06T21:16:54.262Z,20.94
2023-05-06T21:19:21.062Z,21.04
2023-05-06T21:21:48.379Z,20.65
2023-05-06T21:24:15.628Z,21.38
2023-05-06T21:26:42.331Z,21.30
2023-05-06T21:29:09.035Z,21.01
2023-05-06T21:31:35.823Z,21.09
2023-05-06T21:34:04.252Z,20.39
2023-05-06T21:36:31.256Z,20.12
2023-05-06T21:39:11.903Z,19.60
2023-05-06T21:41:39.404Z,20.19
2023-05-06T21:44:07.865Z,20.32
2023-05-06T21:46:35.041Z,20.57
2023-05-06T21:49:01.799Z,20.28
2023-05-06T21:51:34.603Z,20.12
2023-05-06T21:54:01.545Z,20.18
2023-05-06T21:56:28.560Z,20.24
2023-05-06T21:58:58.539Z,20.41
2023-05-06T22:01:29.123Z,20.67
2023-05-06T22:03:56.274Z,19.78
2023-05-06T22:06:23.363Z,20.44
2023-05-06T22:08:49.901Z,20.62
2023-05-06T22:11:17.068Z,20.22
2023-05-06T22:13:43.639Z,20.61
2023-05-06T22:16:10.317Z,20.35
2023-05-06T22:18:41.668Z,20.01
2023-05-06T22:21:09.967Z,20.05
2023-05-06T22:23:36.716Z,20.33
2023-05-06T22:26:04.468Z,20.31
2023-05-06T22:28:31.155Z,20.19
2023-05-06T22:30:57.956Z,20.15
2023-05-06T22:33:26.349Z,19.86
2023-05-06T22:35:53.182Z,20.10
2023-05-06T22:38:20.905Z,19.68
2023-05-06T22:40:47.394Z,19.78
2023-05-06T22:43:13.897Z,20.13
2023-05-06T22:45:41.618Z,19.69
2023-05-06T22:48:08.182Z,19.57
2023-05-06T22:50:35.041Z,20.08
2023-05-06T22:53:10.302Z,20.21
2023-05-06T22:55:40.869Z,19.78
2023-05-06T22:58:07.466Z,19.59
2023-05-06T23:00:34.075Z,19.73
2023-05-06T23:03:00.972Z,19.68
2023-05-06T23:05:27.863Z,20.13
2023-05-06T23:07:54.381Z,19.60
2023-05-06T23:10:21.633Z,19.93
2023-05-06T23:12:48.604Z,20.29
2023-05-06T23:15:15.359Z,20.04
2023-05-06T23:17:42.098Z,20.01
2023-05-06T23:20:09.902Z,19.79
2023-05-06T23:22:36.595Z,20.30
2023-05-06T23:25:03.459Z,19.92
2023-05-06T23:27:30.429Z,20.14
2023-05-06T23:29:58.083Z,19.21
2023-05-06T23:32:24.827Z,19.68
2023-05-06T23:34:52.516Z,19.73
2023-05-06T23:37:20.345Z,18.81
2023-05-06T23:39:47.728Z,19.05
2023-05-06T23:42:14.625Z,19.21
2023-05-06T23:44:41.222Z,18.59
2023-05-06T23:47:07.754Z,19.51
2023-05-06T23:49:37.679Z,19.59
2023-05-06T23:52:04.640Z,19.30
2023-05-06T23:54:31.244Z,19.51
2023-05-06T23:56:58.031Z,19.50
2023-05-06T23:59:24.569Z,19.35
